Active alerts

Gallatin County, MT
  Details for Gallatin County, MT Winter Storm Warning
Gallatin County, MT
  Details for Gallatin County, MT Hydrologic Outlook

Thunder radar more information blitzortung!


Rain radar more information rain snow radar



Nearby METAR Reports

   
KNUQ - Mountain View, CA
Updated: Jan 25 2022 9:15 am
Mist, Overcast  
Mist, Overcast  
   Wind: Calm
Wind: Calm
Temperature: 48.2°F
Dew Point: 44.6°F
Humidity: 87%
Barometer: 30.09 inHg
Clouds: Overcast
Visibility: 4 mi
Cloud details: Overcast 500 ft
KNUQ 251715Z AUTO 00000KT 4SM BR OVC005 09/07 A3009 RMK AO2
KSFO - San Francisco, CA
Updated: Jan 25 2022 8:56 am
Mist, Mostly Cloudy  
Mist, Mostly Cloudy  
   Wind: Calm
Wind: Calm
Temperature: 48.2°F
Dew Point: 46.4°F
Humidity: 94%
Barometer: 30.08 inHg
Clouds: Mostly Cloudy
Visibility: 2 mi
Cloud details: Few Clouds 400 ft,
Mostly Cloudy 600 ft,
Mostly Cloudy 800 ft
KSFO 251656Z 00000KT 2SM BR FEW004 BKN006 BKN008 09/08 A3008 RMK AO2 SLP186 T00940083 $
KSJC - San Jose, CA
Updated: Jan 25 2022 8:53 am
Mist, Overcast  
Mist, Overcast  
   Wind: Calm
Wind: Calm
Temperature: 44.6°F
Dew Point: 41°F
Humidity: 87%
Barometer: 30.09 inHg
Clouds: Overcast
Visibility: 6 mi
Cloud details: Few Clouds 0 ft,
Mostly Cloudy 700 ft,
Overcast 1000 ft
KSJC 251653Z 00000KT 6SM BR FEW000 BKN007 OVC010 07/05 A3009 RMK AO2 SLP187 T00720050
KOAK - Oakland, CA
Updated: Jan 25 2022 8:53 am
Mist, Overcast  
Mist, Overcast  
   Wind: Calm
Wind: Calm
Temperature: 48.2°F
Dew Point: 46.4°F
Humidity: 94%
Barometer: 30.09 inHg
Clouds: Overcast
Visibility: 1 mi
Cloud details: Overcast 500 ft
KOAK 251653Z 00000KT 1SM BR OVC005 09/08 A3009 RMK AO2 SLP188 T00890083 $
KMRY - Monterey, CA
Updated: Jan 25 2022 9:24 am
Mist, Mostly Cloudy  
Mist, Mostly Cloudy  
   Wind: Calm
Wind: Calm
Temperature: 46.4°F
Dew Point: 46.4°F
Humidity: 100%
Barometer: 30.08 inHg
Clouds: Mostly Cloudy
Visibility: 1 mi
Cloud details: Mostly Cloudy 100 ft
KMRY 251724Z 00000KT 1SM R10R/0600V1200FT BR BKN001 08/08 A3008 RMK AO2 T00830078
KWYS - West Yellowstone, MT
Updated: Nov 12 2021 8:30 am
NOT Current
Light, Overcast  
Light, Overcast  
   Wind: Calm
Wind: Calm
Temperature: 26.6°F
Dew Point: 26.6°F
Humidity: 100%
Barometer: 30.37 inHg
Clouds: Overcast
Visibility: 6 mi
Cloud details: Overcast 900 ft
KWYS 121630Z AUTO 00000KT 6SM -UP OVC009 M03/M03 A3037 RMK AO2
KDCA - Washington, DC
Updated: Jan 25 2022 8:52 am
Overcast  
Overcast  
   Wind: NE 3.5 mph
Wind: NE 3.5 mph
Temperature: 44.6°F
Wind Chill: 42.8°F
Dew Point: 28.4°F
Humidity: 53%
Barometer: 29.98 inHg
Clouds: Overcast
Visibility: 10 mi
Cloud details: Mostly Cloudy 7000 ft,
Mostly Cloudy 14000 ft,
Overcast 23000 ft
KDCA 251652Z 05003KT 10SM BKN070 BKN140 OVC230 07/M02 A2998 RMK AO2 SLP152 T00721022 $
KIAD - Washington Dulles, VA
Updated: Jan 25 2022 8:52 am
Mostly Cloudy  
Mostly Cloudy  
   Wind: North 9.2 mph
Wind: North 9.2 mph
Temperature: 44.6°F
Wind Chill: 39.2°F
Dew Point: 28.4°F
Humidity: 53%
Barometer: 29.97 inHg
Clouds: Mostly Cloudy
Visibility: 10 mi
Cloud details: Mostly Cloudy 5000 ft,
Mostly Cloudy 14000 ft,
Mostly Cloudy 20000 ft
KIAD 251652Z 01008KT 10SM BKN050 BKN140 BKN200 07/M02 A2997 RMK AO2 SLP151 T00721022
KMIA - Miami Beach, FL
Updated: Jan 25 2022 8:53 am
Mostly Cloudy  
Mostly Cloudy  
   Wind: NNE 6.9 mph
Wind: NNE 6.9 mph
Temperature: 71.6°F
Dew Point: 55.4°F
Humidity: 57%
Barometer: 30.03 inHg
Clouds: Mostly Cloudy
Visibility: 10 mi
Cloud details: Partly Cloudy 22000 ft,
Mostly Cloudy 25000 ft
KMIA 251653Z 03006KT 10SM SCT220 BKN250 22/13 A3003 RMK AO2 SLP168 T02220128 $

Script developed by  Saratoga-weather.org Adapted for the template by  Weerstation Leuven

You find our weather info also at:

Weather Underground

Citizen Weather Observer Program (CWOP)

Equipment we use:

Weather-station
Ambient WS-1400-IP

Weather-program
Meteobridge

Weather-server
TP-LINK TL-MR3020

Ambient WS-1400-IP

Meteobridge

TP-LINK TL-MR3020